Time;durP1;ratioP1;P1;durP2;ratioP2;P2;SDS_P1;SDS_P2;PMS_P1;PMS_P2;Temp;Humidity;BMP_temperature;BMP_pressure;BME280_temperature;BME280_humidity;BME280_pressure;Samples;Min_cycle;Max_cycle;Signal;HPM_P1;HPM_P2
2022/08/19 00:00:37;;;;;;;12.07;8.93;;;17.10;99.90;;;;;;5057566;28;20060;-67
2022/08/19 00:03:04;;;;;;;9.60;7.85;;;17.10;99.90;;;;;;5057360;28;20056;-68
2022/08/19 00:05:31;;;;;;;14.48;8.85;;;17.00;99.90;;;;;;5057247;28;20064;-65
2022/08/19 00:07:57;;;;;;;16.05;9.05;;;17.00;99.90;;;;;;5039625;28;20053;-69
2022/08/19 00:10:23;;;;;;;16.00;10.43;;;17.00;99.90;;;;;;5057064;28;20071;-67
2022/08/19 00:12:49;;;;;;;12.82;9.77;;;16.90;99.90;;;;;;5057019;28;20045;-66
2022/08/19 00:15:17;;;;;;;12.10;9.50;;;17.00;99.90;;;;;;5039450;28;20049;-68
2022/08/19 00:17:44;;;;;;;14.23;10.15;;;17.00;99.90;;;;;;5056799;28;20060;-72
2022/08/19 00:20:13;;;;;;;14.57;9.48;;;17.00;99.90;;;;;;5039285;28;20041;-67
2022/08/19 00:22:40;;;;;;;14.20;8.68;;;17.00;99.90;;;;;;5056615;28;20045;-70
2022/08/19 00:25:07;;;;;;;13.35;9.52;;;17.00;99.90;;;;;;5056938;28;20045;-65
2022/08/19 00:27:33;;;;;;;11.65;8.95;;;16.90;99.90;;;;;;5056947;28;20045;-66
2022/08/19 00:29:58;;;;;;;13.05;9.32;;;16.90;99.90;;;;;;5056260;28;20037;-67
2022/08/19 00:32:25;;;;;;;12.68;9.35;;;16.90;99.90;;;;;;5056513;28;20048;-67
2022/08/19 00:34:52;;;;;;;14.27;10.13;;;16.90;99.90;;;;;;5056577;28;20052;-66
2022/08/19 00:37:22;;;;;;;15.45;9.77;;;16.90;99.90;;;;;;5039610;28;20114;-68
2022/08/19 00:39:48;;;;;;;13.88;9.10;;;16.90;99.90;;;;;;5056169;28;20178;-65
2022/08/19 00:42:15;;;;;;;13.98;10.40;;;16.90;99.90;;;;;;5056616;28;20141;-66
2022/08/19 00:44:41;;;;;;;11.95;10.05;;;16.90;99.90;;;;;;5056388;28;20097;-68
2022/08/19 00:47:06;;;;;;;11.75;9.52;;;16.80;99.90;;;;;;5056253;28;20138;-66
2022/08/19 00:49:37;;;;;;;13.73;9.93;;;16.80;99.90;;;;;;5056144;28;20087;-65
2022/08/19 00:52:11;;;;;;;14.93;9.38;;;16.80;99.90;;;;;;5056004;28;20060;-66
2022/08/19 00:54:39;;;;;;;17.55;10.15;;;16.80;99.90;;;;;;5056274;28;20041;-65
2022/08/19 00:57:10;;;;;;;13.13;10.15;;;16.80;99.90;;;;;;5055827;28;20056;-69
2022/08/19 00:59:38;;;;;;;13.05;9.40;;;16.70;99.90;;;;;;5056112;28;20037;-66
2022/08/19 01:02:04;;;;;;;12.52;9.15;;;16.70;99.90;;;;;;5055944;28;20064;-66
2022/08/19 01:04:29;;;;;;;11.00;8.80;;;16.70;99.90;;;;;;5056201;28;20397;-67
2022/08/19 01:06:57;;;;;;;10.95;9.13;;;16.70;99.90;;;;;;5055980;28;20049;-67
2022/08/19 01:09:22;;;;;;;11.48;8.40;;;16.70;99.90;;;;;;5056161;28;20045;-67
2022/08/19 01:11:48;;;;;;;12.75;9.00;;;16.70;99.90;;;;;;5055346;28;20426;-66
2022/08/19 01:14:16;;;;;;;9.30;8.27;;;16.70;99.90;;;;;;5055642;28;20045;-65
2022/08/19 01:16:45;;;;;;;13.40;9.30;;;16.60;99.90;;;;;;5055779;28;20143;-67
2022/08/19 01:19:34;;;;;;;14.20;10.40;;;16.70;99.90;;;;;;5055709;28;20041;-66
2022/08/19 01:22:14;;;;;;;12.20;9.57;;;16.70;99.90;;;;;;5055868;28;20079;-65
2022/08/19 01:24:40;;;;;;;15.10;9.35;;;16.70;99.90;;;;;;5055654;28;20127;-67
2022/08/19 01:27:07;;;;;;;11.98;8.30;;;16.60;99.90;;;;;;5038309;28;20458;-68
2022/08/19 01:29:34;;;;;;;14.20;9.45;;;16.60;99.90;;;;;;5055971;28;20374;-67
2022/08/19 01:32:01;;;;;;;10.57;8.65;;;16.60;99.90;;;;;;5055129;28;20128;-69
2022/08/19 01:34:27;;;;;;;12.40;10.18;;;16.60;99.90;;;;;;5055316;28;20060;-69
2022/08/19 01:36:52;;;;;;;13.35;9.73;;;16.50;99.90;;;;;;5055621;28;20386;-68
2022/08/19 01:39:22;;;;;;;13.40;9.50;;;16.60;99.90;;;;;;5038580;28;20044;-66
2022/08/19 01:41:49;;;;;;;13.40;9.85;;;16.50;99.90;;;;;;5061803;28;20048;-67
2022/08/19 01:44:15;;;;;;;11.57;9.90;;;16.50;99.90;;;;;;5038052;28;20470;-65
2022/08/19 01:46:43;;;;;;;10.73;8.45;;;16.50;99.90;;;;;;5055394;28;20477;-70
2022/08/19 01:49:10;;;;;;;11.77;9.82;;;16.50;99.90;;;;;;5055180;28;20037;-65
2022/08/19 01:51:36;;;;;;;11.65;9.15;;;16.50;99.90;;;;;;5055127;28;20048;-69
2022/08/19 01:54:03;;;;;;;13.18;9.13;;;16.50;99.90;;;;;;5055108;28;20049;-67
2022/08/19 01:56:28;;;;;;;11.20;9.93;;;16.50;99.90;;;;;;5055279;28;20063;-69
2022/08/19 01:59:01;;;;;;;13.80;9.00;;;16.50;99.90;;;;;;5037219;28;20049;-69
2022/08/19 02:01:26;;;;;;;12.75;9.48;;;16.50;99.90;;;;;;5055118;28;20120;-70
2022/08/19 02:03:53;;;;;;;15.13;10.35;;;16.50;99.90;;;;;;5054804;28;20453;-66
2022/08/19 02:06:19;;;;;;;11.13;9.90;;;16.50;99.90;;;;;;5054997;28;20048;-70
2022/08/19 02:08:45;;;;;;;12.80;9.73;;;16.40;99.90;;;;;;5054930;28;20398;-67
2022/08/19 02:11:20;;;;;;;11.20;10.07;;;16.40;99.90;;;;;;5054882;28;20044;-66
2022/08/19 02:13:45;;;;;;;14.68;10.13;;;16.40;99.90;;;;;;5054696;28;20102;-66
2022/08/19 02:16:11;;;;;;;12.73;10.75;;;16.40;99.90;;;;;;5037578;28;20053;-70
2022/08/19 02:18:37;;;;;;;14.95;10.77;;;16.30;99.90;;;;;;5054383;28;20045;-68
2022/08/19 02:21:02;;;;;;;15.55;11.05;;;16.40;99.90;;;;;;5054747;28;20045;-68
2022/08/19 02:23:28;;;;;;;14.02;10.88;;;16.30;99.90;;;;;;5054787;28;20451;-68
2022/08/19 02:25:53;;;;;;;15.63;10.55;;;16.40;99.90;;;;;;5054659;28;20359;-68
2022/08/19 02:28:19;;;;;;;16.90;11.05;;;16.40;99.90;;;;;;5054918;28;20087;-68
2022/08/19 02:30:47;;;;;;;13.15;10.52;;;16.40;99.90;;;;;;5037174;28;20045;-68
2022/08/19 02:33:12;;;;;;;12.27;10.35;;;16.30;99.90;;;;;;5053772;28;20106;-66
2022/08/19 02:35:44;;;;;;;17.83;10.85;;;16.30;99.90;;;;;;5054769;28;20127;-66
2022/08/19 02:38:25;;;;;;;15.45;9.85;;;16.40;99.90;;;;;;5037148;28;20041;-69
2022/08/19 02:41:06;;;;;;;13.25;9.77;;;16.30;99.90;;;;;;5054871;28;20163;-67
2022/08/19 02:43:36;;;;;;;15.45;9.13;;;16.30;99.90;;;;;;5054446;28;20041;-67
2022/08/19 02:46:22;;;;;;;15.52;9.95;;;16.40;99.90;;;;;;5057513;28;20463;-68
2022/08/19 02:48:53;;;;;;;13.18;9.60;;;16.30;99.90;;;;;;5058655;28;20049;-67
2022/08/19 02:51:21;;;;;;;14.63;9.82;;;16.30;99.90;;;;;;5058739;28;20109;-65
2022/08/19 02:53:47;;;;;;;13.10;9.43;;;16.40;99.90;;;;;;5058793;28;20142;-68
2022/08/19 02:56:13;;;;;;;15.32;11.15;;;16.30;99.90;;;;;;5040712;28;20156;-66
2022/08/19 02:58:39;;;;;;;15.40;11.88;;;16.30;99.90;;;;;;5058545;28;20077;-67
2022/08/19 03:01:05;;;;;;;15.63;11.85;;;16.30;99.90;;;;;;5058039;28;20056;-68
2022/08/19 03:03:32;;;;;;;14.80;10.77;;;16.30;99.90;;;;;;5058470;28;20052;-65
2022/08/19 03:06:24;;;;;;;12.50;10.30;;;16.30;99.90;;;;;;5058414;28;20049;-68
2022/08/19 03:08:50;;;;;;;16.17;11.30;;;16.30;99.90;;;;;;5054972;28;20504;-66
2022/08/19 03:11:30;;;;;;;14.88;10.75;;;16.30;99.90;;;;;;5058257;28;20045;-68
2022/08/19 03:13:57;;;;;;;16.23;12.20;;;16.20;99.90;;;;;;5058180;28;20335;-66
2022/08/19 03:16:24;;;;;;;13.93;11.23;;;16.20;99.90;;;;;;5058153;28;20044;-68
2022/08/19 03:18:51;;;;;;;14.48;12.20;;;16.20;99.90;;;;;;5058264;28;20114;-70
2022/08/19 03:21:29;;;;;;;17.35;11.90;;;16.30;99.90;;;;;;5058130;28;20091;-68
2022/08/19 03:23:57;;;;;;;16.60;11.18;;;16.30;99.90;;;;;;5064422;28;20055;-66
2022/08/19 03:26:22;;;;;;;16.08;11.63;;;16.30;99.90;;;;;;5078025;28;20049;-66
2022/08/19 03:28:49;;;;;;;16.63;10.65;;;16.30;99.90;;;;;;5077910;28;20469;-69
2022/08/19 03:31:18;;;;;;;12.43;11.18;;;16.20;99.90;;;;;;5078073;28;20116;-69
2022/08/19 03:33:44;;;;;;;13.90;11.18;;;16.20;99.90;;;;;;5077432;28;20439;-66
2022/08/19 03:36:12;;;;;;;15.18;11.27;;;16.20;99.90;;;;;;5202535;22;20269;-67
2022/08/19 03:38:43;;;;;;;13.85;10.70;;;16.30;99.90;;;;;;5020905;28;20057;-68
2022/08/19 03:41:12;;;;;;;16.35;10.90;;;16.20;99.90;;;;;;5030993;28;20041;-66
2022/08/19 03:43:39;;;;;;;13.02;11.02;;;16.30;99.90;;;;;;5020228;28;20064;-67
2022/08/19 03:46:14;;;;;;;12.20;10.43;;;16.20;99.90;;;;;;5020252;28;20053;-68
2022/08/19 03:48:42;;;;;;;16.10;10.07;;;16.30;99.90;;;;;;5037600;28;20049;-66
2022/08/19 03:51:14;;;;;;;14.50;11.52;;;16.30;99.90;;;;;;5037845;28;20336;-68
2022/08/19 03:53:40;;;;;;;15.20;11.90;;;16.20;99.90;;;;;;5037359;28;20053;-65
2022/08/19 03:56:09;;;;;;;15.43;11.38;;;16.20;99.90;;;;;;5036633;28;20049;-65
2022/08/19 03:58:35;;;;;;;14.48;11.02;;;16.10;99.90;;;;;;5036888;28;20116;-66
2022/08/19 04:01:01;;;;;;;15.10;12.05;;;16.20;99.90;;;;;;5020213;28;20049;-66
2022/08/19 04:03:27;;;;;;;16.38;12.02;;;16.10;99.90;;;;;;5037325;28;20050;-68
2022/08/19 04:05:53;;;;;;;16.02;12.48;;;16.20;99.90;;;;;;5037300;28;20041;-68
2022/08/19 04:08:22;;;;;;;19.00;12.15;;;16.20;99.90;;;;;;5037184;28;20116;-66
2022/08/19 04:10:48;;;;;;;17.65;12.45;;;16.20;99.90;;;;;;5037214;28;20131;-67
2022/08/19 04:13:18;;;;;;;15.65;13.23;;;16.20;99.90;;;;;;5037191;28;20037;-70
2022/08/19 04:15:46;;;;;;;15.38;13.27;;;16.20;99.90;;;;;;5036962;28;20056;-69
2022/08/19 04:18:12;;;;;;;16.35;13.40;;;16.20;99.90;;;;;;5020380;28;20045;-67
2022/08/19 04:20:47;;;;;;;18.65;13.52;;;16.10;99.90;;;;;;5037417;28;20049;-66
2022/08/19 04:23:14;;;;;;;15.88;12.77;;;16.20;99.90;;;;;;5037535;28;20041;-66
2022/08/19 04:25:42;;;;;;;18.00;13.48;;;16.20;99.90;;;;;;5037412;28;20057;-69
2022/08/19 04:28:10;;;;;;;19.35;14.10;;;16.20;99.90;;;;;;5036815;28;20056;-65
2022/08/19 04:30:49;;;;;;;16.67;13.38;;;16.20;99.90;;;;;;5036644;28;20132;-65
2022/08/19 04:33:16;;;;;;;17.05;14.85;;;16.10;99.90;;;;;;5036708;28;20041;-66
2022/08/19 04:35:46;;;;;;;21.38;14.02;;;16.10;99.90;;;;;;5019392;28;20107;-66
2022/08/19 04:38:12;;;;;;;21.60;14.73;;;16.20;99.90;;;;;;5036534;28;20518;-66
2022/08/19 04:43:31;;;;;;;20.73;14.50;;;16.20;99.90;;;;;;5036524;28;20081;-66
2022/08/19 04:45:57;;;;;;;17.88;15.98;;;16.10;99.90;;;;;;5036526;28;20045;-67
2022/08/19 04:48:26;;;;;;;21.02;15.02;;;16.20;99.90;;;;;;5036021;28;20037;-68
2022/08/19 04:50:57;;;;;;;19.67;13.73;;;16.20;99.90;;;;;;5002631;28;20084;-64
2022/08/19 04:53:24;;;;;;;17.52;14.65;;;16.30;99.90;;;;;;5036265;28;20049;-66
2022/08/19 04:55:51;;;;;;;17.70;14.23;;;16.30;99.90;;;;;;5036429;28;20060;-68
2022/08/19 04:58:17;;;;;;;22.13;15.55;;;16.20;99.90;;;;;;5036355;28;20084;-68
2022/08/19 05:00:43;;;;;;;19.23;13.63;;;16.20;99.90;;;;;;5036172;28;20091;-69
2022/08/19 05:03:09;;;;;;;23.35;16.20;;;16.30;99.90;;;;;;5036094;28;20345;-66
2022/08/19 05:05:41;;;;;;;20.80;16.90;;;16.30;99.90;;;;;;5036099;28;20170;-68
2022/08/19 05:08:07;;;;;;;21.27;16.60;;;16.30;99.90;;;;;;5035016;28;20470;-69
2022/08/19 05:10:36;;;;;;;23.58;16.63;;;16.30;99.90;;;;;;5018818;28;20138;-68
2022/08/19 05:13:02;;;;;;;20.92;16.58;;;16.30;99.90;;;;;;5036102;28;20375;-66
2022/08/19 05:15:28;;;;;;;21.98;16.58;;;16.40;99.90;;;;;;5035933;28;20037;-69
2022/08/19 05:23:23;;;;;;;21.55;17.30;;;16.30;99.90;;;;;;5035929;28;20064;-67
2022/08/19 05:25:50;;;;;;;21.92;15.93;;;16.40;99.90;;;;;;5035215;28;20041;-66
2022/08/19 05:28:16;;;;;;;24.02;18.50;;;16.40;99.90;;;;;;5035535;28;20041;-69
2022/08/19 05:30:50;;;;;;;21.55;16.55;;;16.50;99.90;;;;;;5133230;27;20696;-69
2022/08/19 05:33:16;;;;;;;22.25;18.00;;;16.50;99.90;;;;;;5075700;28;20056;-67
2022/08/19 05:35:43;;;;;;;23.27;17.85;;;16.40;99.90;;;;;;5092267;28;20359;-72
2022/08/19 05:38:10;;;;;;;24.17;19.15;;;16.40;99.90;;;;;;5092255;28;20044;-68
2022/08/19 05:40:38;;;;;;;22.85;18.42;;;16.50;99.90;;;;;;5108704;28;20052;-68
2022/08/19 05:43:06;;;;;;;22.90;18.15;;;16.40;99.90;;;;;;5094843;28;20056;-66
2022/08/19 05:45:32;;;;;;;27.35;19.50;;;16.50;99.90;;;;;;5112563;28;20498;-66
2022/08/19 05:47:58;;;;;;;25.45;18.95;;;16.50;99.90;;;;;;5095049;28;20121;-69
2022/08/19 05:50:26;;;;;;;26.20;18.80;;;16.50;99.90;;;;;;5094585;28;20442;-66
2022/08/19 05:52:52;;;;;;;25.33;18.88;;;16.50;99.90;;;;;;5112447;28;20374;-67
2022/08/19 05:55:20;;;;;;;26.80;19.02;;;16.60;99.90;;;;;;5112689;28;20083;-67
2022/08/19 05:57:47;;;;;;;26.77;18.92;;;16.50;99.90;;;;;;5111306;28;20035;-67
2022/08/19 06:00:13;;;;;;;26.33;19.25;;;16.60;99.90;;;;;;5112662;28;20051;-67
2022/08/19 06:02:39;;;;;;;24.23;18.23;;;16.70;99.90;;;;;;5112241;28;20097;-67
2022/08/19 06:05:08;;;;;;;24.02;19.30;;;16.70;99.90;;;;;;5112144;28;20461;-66
2022/08/19 06:07:38;;;;;;;22.60;18.27;;;16.80;99.90;;;;;;5112269;28;20100;-66
2022/08/19 06:10:07;;;;;;;25.33;19.75;;;16.80;99.90;;;;;;5111808;28;20136;-68
2022/08/19 06:12:34;;;;;;;24.95;17.92;;;17.00;99.90;;;;;;5112002;28;20039;-70
2022/08/19 06:15:07;;;;;;;24.02;19.30;;;17.00;99.90;;;;;;5091575;28;20040;-69
2022/08/19 06:17:34;;;;;;;22.98;18.35;;;17.00;99.90;;;;;;5091452;28;20044;-70
2022/08/19 06:20:00;;;;;;;28.70;19.33;;;17.10;99.90;;;;;;5091074;28;20048;-71
2022/08/19 06:22:26;;;;;;;27.20;20.25;;;17.00;99.90;;;;;;5091225;28;20113;-71
2022/08/19 06:24:53;;;;;;;26.00;20.02;;;17.10;99.90;;;;;;5091080;28;20092;-69
2022/08/19 06:27:19;;;;;;;23.63;19.25;;;17.20;99.90;;;;;;5091292;28;20052;-66
2022/08/19 06:29:46;;;;;;;25.65;20.35;;;17.20;99.90;;;;;;5091243;28;20052;-71
2022/08/19 06:32:16;;;;;;;28.08;19.73;;;17.20;99.90;;;;;;5101540;28;20043;-66
2022/08/19 06:34:41;;;;;;;26.10;20.13;;;17.20;99.90;;;;;;5111701;28;20169;-74
2022/08/19 06:37:08;;;;;;;27.00;20.42;;;17.30;99.90;;;;;;5111517;28;20081;-72
2022/08/19 06:39:38;;;;;;;23.70;19.80;;;17.40;99.90;;;;;;5109879;28;20031;-70
2022/08/19 06:42:06;;;;;;;26.90;20.75;;;17.50;99.90;;;;;;5098472;28;20040;-72
2022/08/19 06:44:36;;;;;;;25.83;20.92;;;17.50;99.90;;;;;;5097711;28;20462;-71
2022/08/19 06:47:04;;;;;;;26.80;20.55;;;17.60;99.90;;;;;;5096994;28;20059;-70
2022/08/19 06:49:30;;;;;;;24.20;19.88;;;17.70;99.90;;;;;;5097946;28;20083;-71
2022/08/19 06:51:58;;;;;;;26.08;20.23;;;17.80;99.90;;;;;;5097336;28;20362;-72
2022/08/19 06:54:25;;;;;;;26.38;21.38;;;17.90;99.90;;;;;;5097672;28;20181;-70
2022/08/19 06:56:51;;;;;;;24.65;19.83;;;18.00;99.90;;;;;;5097677;28;20121;-69
2022/08/19 06:59:19;;;;;;;23.25;19.60;;;18.10;99.90;;;;;;5079945;28;20442;-69
2022/08/19 07:01:51;;;;;;;24.45;20.02;;;18.20;99.90;;;;;;5097621;28;20058;-69
2022/08/19 07:04:19;;;;;;;23.83;19.95;;;18.30;99.90;;;;;;5096044;28;20059;-70
2022/08/19 07:06:45;;;;;;;26.13;20.70;;;18.50;99.90;;;;;;5097221;28;20079;-70
2022/08/19 07:09:13;;;;;;;28.08;21.15;;;18.50;99.90;;;;;;5097666;28;20080;-72
2022/08/19 07:11:47;;;;;;;26.45;21.50;;;18.60;99.90;;;;;;5097497;28;20453;-66
2022/08/19 07:14:14;;;;;;;26.85;21.27;;;18.80;99.90;;;;;;5097116;28;20078;-70
2022/08/19 07:16:39;;;;;;;24.83;21.83;;;18.80;99.90;;;;;;5097847;28;20093;-68
2022/08/19 07:19:06;;;;;;;25.35;21.15;;;18.90;99.90;;;;;;5097666;28;20079;-71
2022/08/19 07:21:32;;;;;;;27.35;22.42;;;18.90;99.90;;;;;;5096161;28;20088;-70
2022/08/19 07:23:59;;;;;;;24.83;22.20;;;19.00;99.90;;;;;;5079205;28;20079;-70
2022/08/19 07:26:31;;;;;;;25.50;21.58;;;19.10;99.90;;;;;;5097071;28;20084;-67
2022/08/19 07:28:58;;;;;;;26.30;23.42;;;19.20;99.90;;;;;;5096951;28;20048;-67
2022/08/19 07:31:26;;;;;;;26.50;23.65;;;19.30;99.90;;;;;;5081368;28;20037;-68
2022/08/19 07:33:55;;;;;;;26.30;22.30;;;19.40;99.90;;;;;;5079916;28;20072;-67
2022/08/19 07:36:24;;;;;;;26.73;23.20;;;19.40;99.90;;;;;;5078313;28;20070;-72
2022/08/19 07:38:53;;;;;;;26.98;22.35;;;19.50;99.90;;;;;;5085039;28;20364;-71
2022/08/19 07:41:22;;;;;;;29.17;24.40;;;19.60;99.90;;;;;;5061774;28;20102;-71
2022/08/19 07:43:49;;;;;;;30.02;24.42;;;19.70;99.90;;;;;;5075310;28;20067;-69
2022/08/19 07:46:16;;;;;;;31.55;25.98;;;19.70;99.90;;;;;;5076537;28;20055;-70
2022/08/19 07:48:46;;;;;;;28.70;25.15;;;19.70;99.90;;;;;;5081181;28;20063;-73
2022/08/19 07:51:14;;;;;;;28.50;25.40;;;19.90;99.90;;;;;;5090588;28;20048;-71
2022/08/19 07:53:39;;;;;;;30.23;26.70;;;19.80;99.90;;;;;;5095454;28;20040;-71
2022/08/19 07:56:06;;;;;;;28.52;25.50;;;20.10;99.90;;;;;;5086944;28;20451;-68
2022/08/19 07:58:34;;;;;;;33.85;28.05;;;20.10;99.90;;;;;;5058311;28;20063;-70
2022/08/19 08:01:00;;;;;;;29.20;26.10;;;20.00;99.90;;;;;;5076103;28;20045;-68
2022/08/19 08:09:15;;;;;;;33.92;29.10;;;20.40;99.90;;;;;;5095510;28;20048;-69
2022/08/19 08:11:49;;;;;;;36.80;30.10;;;20.50;99.90;;;;;;5075681;28;20066;-67
2022/08/19 08:14:26;;;;;;;33.67;29.85;;;20.70;99.90;;;;;;5075618;28;20083;-67
2022/08/19 08:16:52;;;;;;;37.08;32.17;;;20.90;99.90;;;;;;5090475;28;20512;-71
2022/08/19 08:19:20;;;;;;;40.30;35.80;;;20.90;99.90;;;;;;5069658;28;20048;-71
2022/08/19 08:21:46;;;;;;;42.25;37.03;;;21.00;99.90;;;;;;5075809;28;20123;-67
2022/08/19 08:24:12;;;;;;;40.33;35.38;;;21.10;99.90;;;;;;5075471;28;20057;-67
2022/08/19 08:26:40;;;;;;;40.65;36.40;;;21.20;99.90;;;;;;5075725;28;20059;-69
2022/08/19 08:29:07;;;;;;;41.53;35.03;;;21.20;99.90;;;;;;5075256;28;20071;-68
2022/08/19 08:31:33;;;;;;;43.35;36.83;;;21.30;99.90;;;;;;5075342;28;20049;-69
2022/08/19 08:33:59;;;;;;;40.58;35.72;;;21.30;99.90;;;;;;5075230;28;20047;-69
2022/08/19 08:36:25;;;;;;;41.95;32.80;;;21.30;99.90;;;;;;5084408;28;20058;-71
2022/08/19 08:38:52;;;;;;;35.28;30.27;;;21.30;99.90;;;;;;5088930;28;20040;-69
2022/08/19 08:41:32;;;;;;;34.47;29.05;;;21.40;99.90;;;;;;5093948;28;20056;-68
2022/08/19 08:43:58;;;;;;;36.53;29.60;;;21.60;99.90;;;;;;5080010;28;20373;-69
2022/08/19 08:46:33;;;;;;;35.15;28.77;;;21.80;99.90;;;;;;5101425;28;20045;-69
2022/08/19 08:49:20;;;;;;;36.08;30.48;;;21.90;99.90;;;;;;5094187;28;20048;-67
2022/08/19 08:51:59;;;;;;;38.00;30.52;;;22.00;99.90;;;;;;5095523;28;20044;-66
2022/08/19 08:54:33;;;;;;;40.95;32.15;;;22.10;99.90;;;;;;5092642;28;20370;-67
2022/08/19 08:56:58;;;;;;;33.25;28.48;;;22.10;99.90;;;;;;5094539;28;20052;-71
2022/08/19 08:59:32;;;;;;;41.25;31.50;;;22.10;99.90;;;;;;5095199;28;20051;-66
2022/08/19 09:01:58;;;;;;;34.67;29.90;;;22.20;99.90;;;;;;5095302;28;20074;-66
2022/08/19 09:04:24;;;;;;;35.88;31.27;;;22.10;99.90;;;;;;5092020;28;20449;-66
2022/08/19 09:07:33;;;;;;;36.75;29.33;;;22.20;99.90;;;;;;5057153;28;20393;-65
2022/08/19 09:10:23;;;;;;;33.13;27.85;;;22.10;99.90;;;;;;5074754;28;20056;-67
2022/08/19 09:13:03;;;;;;;40.03;28.17;;;22.00;99.90;;;;;;5074983;28;20048;-65
2022/08/19 09:15:40;;;;;;;31.88;24.25;;;22.00;99.90;;;;;;5074668;28;20371;-64
2022/08/19 09:18:08;;;;;;;27.70;22.33;;;21.90;99.90;;;;;;5057524;28;20145;-64
2022/08/19 09:20:33;;;;;;;31.88;21.73;;;21.90;99.90;;;;;;5074856;28;20059;-65
2022/08/19 09:22:59;;;;;;;28.60;18.20;;;21.90;99.90;;;;;;5074860;28;20040;-64
2022/08/19 09:25:25;;;;;;;23.67;17.60;;;22.00;99.90;;;;;;5074437;28;20032;-63
2022/08/19 09:27:53;;;;;;;23.33;17.38;;;22.10;99.90;;;;;;5057214;28;20052;-66
2022/08/19 09:30:27;;;;;;;23.35;20.10;;;22.00;99.90;;;;;;5074694;28;20450;-66
2022/08/19 09:32:54;;;;;;;28.13;19.55;;;22.10;99.90;;;;;;5057070;28;20052;-65
2022/08/19 09:35:24;;;;;;;27.35;21.58;;;22.00;99.90;;;;;;5074099;28;20123;-65
2022/08/19 09:37:51;;;;;;;29.60;20.02;;;22.10;99.90;;;;;;5074976;28;20052;-66
2022/08/19 09:40:17;;;;;;;27.92;19.13;;;22.20;99.90;;;;;;5074783;28;20109;-66
2022/08/19 09:42:46;;;;;;;25.45;19.60;;;22.10;99.90;;;;;;5075526;28;20054;-65
2022/08/19 09:45:12;;;;;;;27.60;19.67;;;22.20;99.90;;;;;;5074658;28;20443;-66
2022/08/19 09:47:38;;;;;;;22.55;17.25;;;22.30;99.90;;;;;;5074601;28;20063;-66
2022/08/19 09:50:06;;;;;;;21.63;16.70;;;22.40;99.90;;;;;;5074574;28;20048;-68
2022/08/19 09:52:32;;;;;;;23.85;17.05;;;22.50;99.90;;;;;;5073914;28;20041;-67
2022/08/19 09:54:58;;;;;;;28.50;18.58;;;22.60;99.90;;;;;;5074310;28;20542;-65
2022/08/19 09:57:23;;;;;;;21.15;15.05;;;22.80;99.90;;;;;;5074218;28;20083;-67
2022/08/19 09:59:49;;;;;;;22.73;16.02;;;22.90;99.90;;;;;;5074103;28;20102;-68
2022/08/19 10:02:14;;;;;;;23.42;18.67;;;23.00;99.90;;;;;;5074302;28;20120;-67
2022/08/19 10:07:24;;;;;;;26.77;19.25;;;23.00;99.90;;;;;;5074378;28;20052;-67
2022/08/19 10:09:51;;;;;;;23.73;16.45;;;23.00;99.90;;;;;;5074415;28;20113;-65
2022/08/19 10:12:16;;;;;;;23.80;16.88;;;22.90;99.90;;;;;;5074442;28;20060;-67
2022/08/19 10:14:42;;;;;;;31.85;21.48;;;23.00;99.90;;;;;;5073894;28;20044;-66
2022/08/19 10:17:07;;;;;;;28.75;19.70;;;23.00;99.90;;;;;;5077285;28;20040;-68
2022/08/19 10:19:35;;;;;;;21.05;16.25;;;23.10;99.90;;;;;;5078263;28;20131;-67
2022/08/19 10:22:05;;;;;;;17.00;13.85;;;23.20;99.90;;;;;;5077670;28;20056;-67
2022/08/19 10:24:31;;;;;;;19.98;13.80;;;23.10;99.90;;;;;;5078003;28;20059;-67
2022/08/19 10:26:57;;;;;;;19.70;15.40;;;23.20;99.90;;;;;;5078011;28;20123;-67
2022/08/19 10:29:22;;;;;;;20.00;13.50;;;23.30;99.90;;;;;;5077731;28;20461;-67
2022/08/19 10:31:48;;;;;;;19.23;13.93;;;23.50;99.90;;;;;;5076101;28;20185;-68
2022/08/19 10:34:14;;;;;;;19.02;14.45;;;23.40;99.90;;;;;;5076672;28;20049;-66
2022/08/19 10:36:39;;;;;;;20.85;14.57;;;23.50;99.90;;;;;;5077826;28;20052;-67
2022/08/19 10:39:08;;;;;;;24.23;17.45;;;23.50;99.90;;;;;;5077965;28;20049;-66
2022/08/19 10:41:36;;;;;;;24.40;14.57;;;23.50;99.90;;;;;;5077228;28;20047;-69
2022/08/19 10:44:06;;;;;;;18.30;13.85;;;23.60;99.90;;;;;;5077453;28;20426;-67
2022/08/19 10:46:33;;;;;;;16.52;13.48;;;23.60;99.90;;;;;;5077604;28;20136;-66
2022/08/19 10:49:01;;;;;;;17.88;13.18;;;23.60;99.90;;;;;;5077451;28;20510;-67
2022/08/19 10:54:11;;;;;;;17.40;11.45;;;23.60;99.90;;;;;;5077504;28;20048;-68
2022/08/19 10:56:52;;;;;;;15.98;11.45;;;23.40;99.90;;;;;;5077369;28;20427;-65
2022/08/19 10:59:28;;;;;;;15.95;12.23;;;23.50;99.90;;;;;;5076794;28;20075;-66
2022/08/19 11:02:01;;;;;;;19.90;15.10;;;23.60;99.90;;;;;;5076948;28;20091;-68
2022/08/19 11:04:27;;;;;;;17.58;13.70;;;23.70;99.90;;;;;;5077359;28;20405;-68
2022/08/19 11:06:53;;;;;;;21.17;15.80;;;23.90;99.90;;;;;;5077271;28;20044;-66
2022/08/19 11:09:24;;;;;;;23.50;15.63;;;24.10;99.90;;;;;;5076399;28;20087;-67
2022/08/19 11:11:52;;;;;;;19.15;13.77;;;24.20;99.90;;;;;;5077251;28;20032;-66
2022/08/19 11:14:20;;;;;;;14.77;10.77;;;24.20;99.90;;;;;;5076873;28;20044;-65
2022/08/19 11:16:46;;;;;;;17.98;12.18;;;24.10;99.90;;;;;;5077011;28;20044;-65
2022/08/19 11:19:12;;;;;;;16.90;12.13;;;24.10;99.90;;;;;;5077157;28;20328;-68
2022/08/19 11:21:41;;;;;;;19.98;12.43;;;24.20;99.90;;;;;;5059470;28;20060;-67
2022/08/19 11:24:10;;;;;;;19.67;17.58;;;24.10;99.90;;;;;;5077014;28;20082;-67
2022/08/19 11:26:37;;;;;;;20.42;15.23;;;23.90;99.90;;;;;;5076783;28;20454;-66
2022/08/19 11:29:04;;;;;;;19.25;12.38;;;23.80;99.90;;;;;;5059249;28;20056;-67
2022/08/19 11:31:32;;;;;;;15.68;11.35;;;23.80;99.90;;;;;;5058576;28;20056;-68
2022/08/19 11:33:59;;;;;;;18.73;12.40;;;23.80;99.90;;;;;;5059352;28;20079;-67
2022/08/19 11:36:26;;;;;;;17.02;12.52;;;23.90;99.90;;;;;;5058809;28;20045;-65
2022/08/19 11:38:52;;;;;;;14.35;11.27;;;23.90;99.90;;;;;;5076877;28;20120;-66
2022/08/19 11:41:20;;;;;;;17.40;12.35;;;24.10;99.90;;;;;;5076261;28;20140;-68
2022/08/19 11:43:46;;;;;;;16.85;15.02;;;24.20;99.90;;;;;;5076546;28;20127;-68
2022/08/19 11:46:14;;;;;;;18.90;14.45;;;24.10;99.90;;;;;;5076347;28;20083;-66
2022/08/19 11:48:40;;;;;;;15.25;12.68;;;24.30;99.90;;;;;;5042311;28;20063;-67
2022/08/19 11:51:09;;;;;;;12.60;10.90;;;24.50;99.90;;;;;;5076042;28;20048;-66
2022/08/19 11:53:35;;;;;;;16.20;12.57;;;24.50;99.90;;;;;;5076109;28;20037;-65
2022/08/19 11:56:03;;;;;;;14.07;12.40;;;24.50;99.90;;;;;;5076680;28;20093;-66
2022/08/19 11:58:31;;;;;;;16.50;11.00;;;24.50;99.90;;;;;;5076196;28;20040;-63
2022/08/19 12:00:57;;;;;;;17.55;9.10;;;24.60;99.90;;;;;;5074954;28;20037;-65
2022/08/19 12:03:23;;;;;;;17.83;9.40;;;24.80;99.90;;;;;;5058914;28;20056;-66
2022/08/19 12:05:49;;;;;;;13.40;8.15;;;24.70;99.90;;;;;;5058778;28;20474;-67
2022/08/19 12:08:15;;;;;;;13.65;9.52;;;24.50;99.90;;;;;;5075158;28;20118;-66
2022/08/19 12:10:42;;;;;;;16.05;10.23;;;24.30;99.90;;;;;;5058136;28;20355;-68
2022/08/19 12:13:12;;;;;;;13.18;10.15;;;24.40;99.90;;;;;;5075959;28;20045;-67
2022/08/19 12:15:40;;;;;;;15.70;11.40;;;24.20;99.90;;;;;;5075525;28;20459;-67
2022/08/19 12:18:07;;;;;;;16.58;10.88;;;24.20;99.90;;;;;;5075384;28;20493;-68
2022/08/19 12:20:38;;;;;;;19.60;10.50;;;24.20;99.90;;;;;;5075494;28;20087;-68
2022/08/19 12:23:04;;;;;;;16.00;11.85;;;24.40;99.90;;;;;;5075622;28;20048;-69
2022/08/19 12:25:31;;;;;;;14.73;12.57;;;24.40;99.90;;;;;;5075627;28;20040;-68
2022/08/19 12:27:57;;;;;;;13.93;12.10;;;24.50;99.90;;;;;;5075744;28;20522;-67
2022/08/19 12:30:22;;;;;;;18.50;13.95;;;24.40;99.90;;;;;;5074735;28;20070;-68
2022/08/19 12:32:48;;;;;;;17.65;12.63;;;24.40;99.90;;;;;;5075410;28;20102;-67
2022/08/19 12:35:14;;;;;;;15.15;12.13;;;24.20;99.90;;;;;;5075444;28;20063;-71
2022/08/19 12:37:42;;;;;;;15.85;11.48;;;24.00;99.90;;;;;;5074941;28;20055;-68
2022/08/19 12:40:08;;;;;;;16.73;12.18;;;24.00;99.90;;;;;;5074965;28;20381;-67
2022/08/19 12:42:34;;;;;;;15.98;14.07;;;24.10;99.90;;;;;;5074728;28;20037;-68
2022/08/19 12:45:00;;;;;;;15.10;12.23;;;24.20;99.90;;;;;;5075047;28;20052;-69
2022/08/19 12:47:26;;;;;;;17.58;14.05;;;24.10;99.90;;;;;;5074636;28;20039;-68
2022/08/19 12:49:51;;;;;;;14.50;12.30;;;24.20;99.90;;;;;;5075628;28;20048;-71
2022/08/19 12:52:20;;;;;;;15.05;12.52;;;24.30;99.90;;;;;;5075413;28;20359;-68